Terminal Aerodrome Forecast
Issued by NWS Charleston, WV

Current Version | Previous Version | Text Only | Print | Product List | Glossary Off
Versions: 1 2 3 4 5 6 7 8 9 10 11 12 13 14 15 16 17 18 19 20 21 22 23 24 25

000
FTUS41 KRLX 151300 AAA
TAFBKW
TAF AMD
KBKW 151308Z 1513/1612 00000KT 1/2SM FG VV002
      TEMPO 1513/1514 3SM BR BKN001
     FM151400 00000KT P6SM BKN015
     FM151500 27006KT P6SM SCT020
     FM152000 26005KT P6SM BKN035
     FM160600 29005KT 5SM BR BKN035=

USA.gov is the U.S. government's official web portal to all federal, state and local government web resources and services.